createdAt,value
2023-01-31T00:00:00.980Z,3.9
2023-01-31T00:01:00.583Z,3.9
2023-01-31T00:02:00.303Z,3.8
2023-01-31T00:03:00.783Z,3.8
2023-01-31T00:04:00.397Z,3.8
2023-01-31T00:05:00.956Z,3.7
2023-01-31T00:06:00.543Z,3.7
2023-01-31T00:07:00.143Z,3.6
2023-01-31T00:08:00.758Z,3.5
2023-01-31T00:09:00.345Z,3.4
2023-01-31T00:10:00.940Z,3.3
2023-01-31T00:11:00.549Z,3.3
2023-01-31T00:12:00.142Z,3.3
2023-01-31T00:13:00.740Z,3.3
2023-01-31T00:14:00.337Z,3.3
2023-01-31T00:15:00.903Z,3.3
2023-01-31T00:16:00.550Z,3.3
2023-01-31T00:17:00.086Z,3.4
2023-01-31T00:18:00.661Z,3.3
2023-01-31T00:19:00.251Z,3.4
2023-01-31T00:20:00.831Z,3.3
2023-01-31T00:21:00.423Z,3.3
2023-01-31T00:22:01.000Z,3.2
2023-01-31T00:23:00.641Z,3.1
2023-01-31T00:24:00.300Z,3.1
2023-01-31T00:25:00.817Z,3.2
2023-01-31T00:26:00.408Z,3.2
2023-01-31T00:27:00.987Z,3.2
2023-01-31T00:28:00.599Z,3.3
2023-01-31T00:29:00.195Z,3.3
2023-01-31T00:30:00.784Z,3.3
2023-01-31T00:31:00.428Z,3.3
2023-01-31T00:32:01.066Z,3.3
2023-01-31T00:33:00.731Z,3.4
2023-01-31T00:34:00.204Z,3.4
2023-01-31T00:35:00.806Z,3.4
2023-01-31T00:36:00.468Z,3.4
2023-01-31T00:37:00.985Z,3.5
2023-01-31T00:38:00.567Z,3.5
2023-01-31T00:39:00.166Z,3.5
2023-01-31T00:40:00.752Z,3.5
2023-01-31T00:43:00.371Z,3.6
2023-01-31T00:44:00.959Z,3.6
2023-01-31T00:45:00.571Z,3.7
2023-01-31T00:46:00.136Z,3.7
2023-01-31T00:47:00.802Z,3.7
2023-01-31T00:48:00.410Z,3.8
2023-01-31T00:49:00.946Z,3.8
2023-01-31T00:50:00.570Z,3.7
2023-01-31T00:51:00.202Z,3.7
2023-01-31T00:52:00.714Z,3.7
2023-01-31T00:53:00.309Z,3.7
2023-01-31T00:54:00.942Z,3.7
2023-01-31T00:55:00.541Z,3.7
2023-01-31T00:56:00.112Z,3.8
2023-01-31T00:57:00.707Z,3.8
2023-01-31T00:58:00.308Z,3.8
2023-01-31T00:59:00.891Z,3.8
2023-01-31T01:00:00.482Z,3.9
2023-01-31T01:01:00.110Z,3.9
2023-01-31T01:02:00.743Z,3.9
2023-01-31T01:03:00.318Z,3.9
2023-01-31T01:04:00.901Z,4
2023-01-31T01:05:00.534Z,3.9
2023-01-31T01:06:00.104Z,4
2023-01-31T01:07:00.671Z,4
2023-01-31T01:08:00.274Z,4
2023-01-31T01:09:00.858Z,4
2023-01-31T01:10:00.499Z,4.1
2023-01-31T01:11:00.076Z,4.1
2023-01-31T01:12:00.641Z,4
2023-01-31T01:13:00.263Z,4.1
2023-01-31T01:14:00.818Z,4.1
2023-01-31T01:15:00.407Z,4.1
2023-01-31T01:16:01.000Z,4.1
2023-01-31T01:17:00.589Z,4.1
2023-01-31T01:18:00.206Z,4.1
2023-01-31T01:19:00.755Z,4
2023-01-31T01:20:00.396Z,4.1
2023-01-31T01:21:00.916Z,4.1
2023-01-31T01:22:00.526Z,4.1
2023-01-31T01:23:00.107Z,4
2023-01-31T01:24:00.686Z,4.1
2023-01-31T01:25:00.341Z,4
2023-01-31T01:26:00.862Z,4.1
2023-01-31T01:27:00.488Z,4.1
2023-01-31T01:28:00.040Z,4
2023-01-31T01:29:00.624Z,4
2023-01-31T01:30:00.238Z,4
2023-01-31T01:31:00.818Z,4
2023-01-31T01:32:00.575Z,4
2023-01-31T01:33:00.982Z,3.9
2023-01-31T01:34:00.605Z,3.8
2023-01-31T01:35:00.227Z,3.8
2023-01-31T01:36:00.809Z,3.7
2023-01-31T01:37:00.419Z,3.8
2023-01-31T01:38:00.983Z,3.8
2023-01-31T01:39:00.571Z,3.7
2023-01-31T01:40:00.186Z,3.7
2023-01-31T01:41:00.731Z,3.7
2023-01-31T01:42:00.321Z,3.7
2023-01-31T01:43:00.902Z,3.7
2023-01-31T01:44:00.521Z,3.7
2023-01-31T01:45:00.122Z,3.6
2023-01-31T01:46:00.667Z,3.6
2023-01-31T01:47:00.293Z,3.6
2023-01-31T01:48:00.864Z,3.7
2023-01-31T01:49:00.453Z,3.6
2023-01-31T01:50:00.037Z,3.6
2023-01-31T01:51:00.799Z,3.5
2023-01-31T01:52:00.320Z,3.5
2023-01-31T01:53:00.880Z,3.5
2023-01-31T01:54:00.469Z,3.5
2023-01-31T01:55:00.095Z,3.5
2023-01-31T01:56:00.645Z,3.5
2023-01-31T01:57:00.260Z,3.5
2023-01-31T01:58:00.851Z,3.4
2023-01-31T01:59:00.447Z,3.4
2023-01-31T02:00:01.008Z,3.4
2023-01-31T02:01:00.628Z,3.4
2023-01-31T02:02:00.259Z,3.4
2023-01-31T02:03:00.858Z,3.4
2023-01-31T02:04:00.456Z,3.6
2023-01-31T02:05:01.028Z,3.6
2023-01-31T02:06:00.617Z,3.6
2023-01-31T02:07:00.223Z,3.6
2023-01-31T02:08:00.818Z,3.7
2023-01-31T02:09:00.406Z,3.7
2023-01-31T02:10:01.015Z,3.7
2023-01-31T02:11:00.606Z,3.6
2023-01-31T02:12:00.218Z,3.7
2023-01-31T02:13:00.792Z,3.7
2023-01-31T02:14:00.378Z,3.6
2023-01-31T02:15:00.968Z,3.6
2023-01-31T02:16:00.555Z,3.7
2023-01-31T02:17:00.200Z,3.7
2023-01-31T02:18:00.804Z,3.7
2023-01-31T02:19:00.424Z,3.7
2023-01-31T02:20:00.995Z,3.7
2023-01-31T02:21:00.587Z,3.7
2023-01-31T02:22:00.191Z,3.8
2023-01-31T02:23:00.817Z,3.8
2023-01-31T02:24:00.438Z,3.8
2023-01-31T02:25:01.007Z,3.8
2023-01-31T02:26:00.599Z,3.8
2023-01-31T02:27:00.191Z,3.8
2023-01-31T02:28:00.800Z,3.8
2023-01-31T02:29:00.384Z,3.7
2023-01-31T02:30:00.960Z,3.7
2023-01-31T02:31:00.590Z,3.7
2023-01-31T02:32:00.238Z,3.8
2023-01-31T02:33:00.777Z,3.8
2023-01-31T02:34:00.375Z,3.7
2023-01-31T02:35:01.009Z,3.7
2023-01-31T02:36:00.599Z,3.8
2023-01-31T02:37:00.171Z,3.7
2023-01-31T02:38:00.781Z,3.7
2023-01-31T02:39:00.378Z,3.7
2023-01-31T02:40:00.993Z,3.8
2023-01-31T02:41:00.583Z,3.8
2023-01-31T02:42:00.170Z,3.8
2023-01-31T02:43:00.793Z,3.8
2023-01-31T02:44:00.404Z,3.8
2023-01-31T02:45:00.989Z,3.8
2023-01-31T02:46:00.612Z,3.8
2023-01-31T02:47:00.206Z,3.7
2023-01-31T02:48:00.817Z,3.7
2023-01-31T02:49:00.419Z,3.8
2023-01-31T02:50:00.990Z,3.8
2023-01-31T02:51:00.590Z,3.7
2023-01-31T02:52:00.275Z,3.7
2023-01-31T02:53:00.789Z,3.7
2023-01-31T02:54:00.401Z,3.7
2023-01-31T02:55:00.955Z,3.7
2023-01-31T02:56:00.591Z,3.7
2023-01-31T02:57:00.181Z,3.7
2023-01-31T02:58:00.775Z,3.7
2023-01-31T02:59:00.367Z,3.8
2023-01-31T03:00:00.961Z,3.7
2023-01-31T03:01:00.577Z,3.7
2023-01-31T03:02:00.125Z,3.7
2023-01-31T03:03:00.721Z,3.6
2023-01-31T03:04:00.319Z,3.7
2023-01-31T03:05:00.938Z,3.6
2023-01-31T03:06:00.530Z,3.6
2023-01-31T03:07:00.192Z,3.7
2023-01-31T03:08:00.686Z,3.6
2023-01-31T03:09:00.284Z,3.5
2023-01-31T03:10:00.878Z,3.6
2023-01-31T03:11:00.508Z,3.7
2023-01-31T03:12:00.126Z,3.7
2023-01-31T03:13:00.683Z,3.6
2023-01-31T03:14:00.276Z,3.7
2023-01-31T03:15:00.881Z,3.6
2023-01-31T03:16:00.477Z,3.6
2023-01-31T03:17:00.130Z,3.6
2023-01-31T03:18:00.659Z,3.6
2023-01-31T03:19:00.260Z,3.6
2023-01-31T03:20:00.844Z,3.5
2023-01-31T03:21:00.455Z,3.5
2023-01-31T03:22:01.022Z,3.6
2023-01-31T03:23:00.611Z,3.6
2023-01-31T03:24:00.199Z,3.7
2023-01-31T03:25:00.781Z,3.6
2023-01-31T03:26:00.392Z,3.6
2023-01-31T03:27:00.959Z,3.6
2023-01-31T03:28:00.583Z,3.6
2023-01-31T03:29:00.130Z,3.6
2023-01-31T03:30:00.704Z,3.6
2023-01-31T03:31:00.381Z,3.7
2023-01-31T03:32:00.993Z,3.7
2023-01-31T03:33:00.519Z,3.8
2023-01-31T03:34:00.121Z,3.8
2023-01-31T03:35:00.694Z,3.8
2023-01-31T03:36:00.315Z,3.8
2023-01-31T03:37:00.868Z,3.8
2023-01-31T03:38:00.462Z,3.9
2023-01-31T03:39:01.027Z,3.9
2023-01-31T03:40:00.612Z,3.9
2023-01-31T03:41:00.224Z,3.9
2023-01-31T03:42:00.775Z,3.9
2023-01-31T03:43:00.384Z,4
2023-01-31T03:44:00.979Z,4
2023-01-31T03:45:00.562Z,3.9
2023-01-31T03:46:00.252Z,3.9
2023-01-31T03:47:00.720Z,4
2023-01-31T03:48:00.335Z,3.9
2023-01-31T03:49:00.884Z,4
2023-01-31T03:50:00.474Z,4
2023-01-31T03:51:00.078Z,4
2023-01-31T03:52:00.645Z,4
2023-01-31T03:53:00.394Z,4
2023-01-31T03:54:00.833Z,4
2023-01-31T03:55:00.433Z,3.9
2023-01-31T03:56:01.013Z,3.9
2023-01-31T03:57:00.606Z,3.9
2023-01-31T03:58:00.208Z,3.9
2023-01-31T03:59:00.805Z,3.9
2023-01-31T04:00:00.430Z,3.9
2023-01-31T04:01:00.975Z,3.9
2023-01-31T04:02:00.562Z,3.9
2023-01-31T04:03:00.206Z,3.9
2023-01-31T04:04:00.761Z,3.8
2023-01-31T04:05:00.356Z,3.8
2023-01-31T04:06:00.943Z,3.8
2023-01-31T04:07:00.535Z,3.8
2023-01-31T04:08:00.137Z,3.8
2023-01-31T04:09:00.701Z,3.9
2023-01-31T04:10:00.290Z,3.8
2023-01-31T04:11:00.867Z,3.8
2023-01-31T04:12:00.478Z,3.7
2023-01-31T04:13:00.055Z,3.7
2023-01-31T04:14:00.621Z,3.7
2023-01-31T04:15:00.238Z,3.7
2023-01-31T04:16:00.934Z,3.6
2023-01-31T04:17:00.467Z,3.6
2023-01-31T04:18:01.029Z,3.7
2023-01-31T04:19:00.629Z,3.7
2023-01-31T04:20:00.230Z,3.6
2023-01-31T04:21:00.828Z,3.5
2023-01-31T04:22:00.418Z,3.6
2023-01-31T04:23:01.003Z,3.6
2023-01-31T04:24:00.590Z,3.7
2023-01-31T04:25:00.185Z,3.8
2023-01-31T04:26:00.783Z,3.8
2023-01-31T04:27:00.381Z,3.8
2023-01-31T04:28:00.959Z,3.9
2023-01-31T04:29:00.552Z,3.9
2023-01-31T04:30:00.163Z,4
2023-01-31T04:31:00.824Z,4
2023-01-31T04:32:00.531Z,4
2023-01-31T04:33:00.953Z,4
2023-01-31T04:34:00.540Z,4.1
2023-01-31T04:35:02.060Z,4.1
2023-01-31T04:36:00.690Z,4
2023-01-31T04:37:00.288Z,4.1
2023-01-31T04:38:00.861Z,4
2023-01-31T04:39:00.446Z,4.1
2023-01-31T04:40:01.024Z,4.1
2023-01-31T04:41:00.628Z,4.1
2023-01-31T04:42:00.218Z,4.1
2023-01-31T04:43:00.792Z,4.1
2023-01-31T04:44:00.416Z,4.1
2023-01-31T04:45:00.996Z,4.1
2023-01-31T04:46:00.601Z,4.1
2023-01-31T04:47:00.318Z,4
2023-01-31T04:48:00.799Z,4.1
2023-01-31T04:49:00.391Z,4.1
2023-01-31T04:50:00.981Z,4.1
2023-01-31T04:51:00.588Z,4
2023-01-31T04:52:00.173Z,4.1
2023-01-31T04:53:00.878Z,4.1
2023-01-31T04:54:00.414Z,4.1
2023-01-31T04:55:00.986Z,4.1
2023-01-31T04:56:00.577Z,4.2
2023-01-31T04:57:00.164Z,4.1
2023-01-31T04:58:00.786Z,4.1
2023-01-31T04:59:00.421Z,4.1
2023-01-31T05:00:00.954Z,4.2
2023-01-31T05:01:00.548Z,4.1
2023-01-31T05:02:00.117Z,4.1
2023-01-31T05:03:00.773Z,4.1
2023-01-31T05:04:00.369Z,4.1
2023-01-31T05:05:00.922Z,4.1
2023-01-31T05:06:00.509Z,4.2
2023-01-31T05:07:00.115Z,4.1
2023-01-31T05:08:00.664Z,4.1
2023-01-31T05:09:00.276Z,4.1
2023-01-31T05:10:00.839Z,4.1
2023-01-31T05:11:02.344Z,4.2
2023-01-31T05:12:00.982Z,4.2
2023-01-31T05:13:00.573Z,4.2
2023-01-31T05:14:00.186Z,4.2
2023-01-31T05:15:00.749Z,4.2
2023-01-31T05:16:00.428Z,4.2
2023-01-31T05:17:00.944Z,4.3
2023-01-31T05:18:00.532Z,4.3
2023-01-31T05:19:00.140Z,4.3
2023-01-31T05:20:00.744Z,4.2
2023-01-31T05:21:00.340Z,4.2
2023-01-31T05:22:00.927Z,4.3
2023-01-31T05:23:00.526Z,4.3
2023-01-31T05:24:00.149Z,4.3
2023-01-31T05:25:00.686Z,4.3
2023-01-31T05:26:00.278Z,4.3
2023-01-31T05:27:00.864Z,4.3
2023-01-31T05:28:00.514Z,4.3
2023-01-31T05:29:00.104Z,4.3
2023-01-31T05:30:00.675Z,4.3
2023-01-31T05:31:00.341Z,4.4
2023-01-31T05:32:00.943Z,4.4
2023-01-31T05:33:00.562Z,4.4
2023-01-31T05:34:00.167Z,4.4
2023-01-31T05:35:00.741Z,4.4
2023-01-31T05:36:00.392Z,4.4
2023-01-31T05:37:00.908Z,4.4
2023-01-31T05:38:00.527Z,4.4
2023-01-31T05:39:00.115Z,4.3
2023-01-31T05:40:00.703Z,4.4
2023-01-31T05:41:00.299Z,4.4
2023-01-31T05:42:00.896Z,4.5
2023-01-31T05:43:00.487Z,4.5
2023-01-31T05:44:00.097Z,4.4
2023-01-31T05:45:00.668Z,4.4
2023-01-31T05:46:00.270Z,4.4
2023-01-31T05:47:01.337Z,4.4
2023-01-31T05:48:00.115Z,4.3
2023-01-31T05:49:01.083Z,4.3
2023-01-31T05:50:01.189Z,4.4
2023-01-31T05:51:00.933Z,4.4
2023-01-31T05:52:00.852Z,4.4
2023-01-31T05:53:00.847Z,4.4
2023-01-31T05:54:00.581Z,4.5
2023-01-31T05:55:00.413Z,4.5
2023-01-31T05:56:00.752Z,4.4
2023-01-31T05:57:00.346Z,4.5
2023-01-31T05:58:01.523Z,4.5
2023-01-31T05:59:00.166Z,4.4
2023-01-31T06:00:01.191Z,4.5
2023-01-31T06:01:01.027Z,4.4
2023-01-31T06:02:01.082Z,4.4
2023-01-31T06:03:01.158Z,4.4
2023-01-31T06:04:00.911Z,4.4
2023-01-31T06:05:00.572Z,4.4
2023-01-31T06:06:00.508Z,4.4
2023-01-31T06:07:00.758Z,4.4
2023-01-31T06:08:00.436Z,4.4
2023-01-31T06:09:01.225Z,4.3
2023-01-31T06:10:00.998Z,4.4
2023-01-31T06:11:00.207Z,4.4
2023-01-31T06:12:00.939Z,4.4
2023-01-31T06:13:00.407Z,4.4
2023-01-31T06:14:00.980Z,4.5
2023-01-31T06:15:00.787Z,4.5
2023-01-31T06:16:00.726Z,4.5
2023-01-31T06:17:00.564Z,4.5
2023-01-31T06:18:00.246Z,4.5
2023-01-31T06:19:00.808Z,4.5
2023-01-31T06:20:00.405Z,4.5
2023-01-31T06:21:00.983Z,4.6
2023-01-31T06:22:00.614Z,4.6
2023-01-31T06:23:00.234Z,4.6
2023-01-31T06:24:00.856Z,4.5
2023-01-31T06:25:00.430Z,4.6
2023-01-31T06:26:01.014Z,4.6
2023-01-31T06:27:00.694Z,4.6
2023-01-31T06:28:00.306Z,4.6
2023-01-31T06:29:00.838Z,4.7
2023-01-31T06:30:00.449Z,4.6
2023-01-31T06:31:01.096Z,4.5
2023-01-31T06:32:00.723Z,4.6
2023-01-31T06:33:00.251Z,4.6
2023-01-31T06:34:00.802Z,4.7
2023-01-31T06:35:00.435Z,4.7
2023-01-31T06:36:01.016Z,4.7
2023-01-31T06:37:00.610Z,4.8
2023-01-31T06:38:00.238Z,4.7
2023-01-31T06:39:00.797Z,4.8
2023-01-31T06:40:00.418Z,4.7
2023-01-31T06:41:00.995Z,4.7
2023-01-31T06:42:00.588Z,4.7
2023-01-31T06:43:00.175Z,4.7
2023-01-31T06:44:00.763Z,4.7
2023-01-31T06:45:00.382Z,4.7
2023-01-31T06:46:00.988Z,4.6
2023-01-31T06:47:00.574Z,4.6
2023-01-31T06:48:00.152Z,4.7
2023-01-31T06:49:00.747Z,4.7
2023-01-31T06:50:00.364Z,4.7
2023-01-31T06:51:00.993Z,4.8
2023-01-31T06:52:00.583Z,4.7
2023-01-31T06:53:00.169Z,4.7
2023-01-31T06:54:00.767Z,4.7
2023-01-31T06:55:00.481Z,4.7
2023-01-31T06:56:00.999Z,4.7
2023-01-31T06:57:00.590Z,4.7
2023-01-31T06:58:00.196Z,4.7
2023-01-31T06:59:00.784Z,4.7
2023-01-31T07:00:00.396Z,4.7
2023-01-31T07:01:01.006Z,4.7
2023-01-31T07:02:00.597Z,4.7
2023-01-31T07:03:00.195Z,4.6
2023-01-31T07:04:00.787Z,4.7
2023-01-31T07:05:00.423Z,4.6
2023-01-31T07:06:00.976Z,4.7
2023-01-31T07:07:00.561Z,4.6
2023-01-31T07:08:00.160Z,4.7
2023-01-31T07:09:00.982Z,4.6
2023-01-31T07:10:00.401Z,4.6
2023-01-31T07:11:00.996Z,4.6
2023-01-31T07:12:00.614Z,4.7
2023-01-31T07:13:00.226Z,4.7
2023-01-31T07:14:00.781Z,4.6
2023-01-31T07:15:00.379Z,4.7
2023-01-31T07:16:01.086Z,4.7
2023-01-31T07:17:00.713Z,4.6
2023-01-31T07:18:00.204Z,4.6
2023-01-31T07:19:00.767Z,4.7
2023-01-31T07:20:00.357Z,4.7
2023-01-31T07:21:00.948Z,4.6
2023-01-31T07:22:00.563Z,4.7
2023-01-31T07:23:00.171Z,4.6
2023-01-31T07:24:00.744Z,4.6
2023-01-31T07:25:00.331Z,4.6
2023-01-31T07:26:00.908Z,4.6
2023-01-31T07:27:00.515Z,4.7
2023-01-31T07:28:00.105Z,4.7
2023-01-31T07:29:00.657Z,4.6
2023-01-31T07:30:00.248Z,4.6
2023-01-31T07:31:00.847Z,4.7
2023-01-31T07:32:00.524Z,4.7
2023-01-31T07:33:00.047Z,4.7
2023-01-31T07:34:00.635Z,4.6
2023-01-31T07:35:00.262Z,4.7
2023-01-31T07:36:00.815Z,4.6
2023-01-31T07:37:00.404Z,4.6
2023-01-31T07:38:00.989Z,4.7
2023-01-31T07:39:00.596Z,4.7
2023-01-31T07:40:00.202Z,4.7
2023-01-31T07:41:00.755Z,4.7
2023-01-31T07:42:00.352Z,4.7
2023-01-31T07:43:00.937Z,4.7
2023-01-31T07:44:00.570Z,4.7
2023-01-31T07:45:07.122Z,4.8
2023-01-31T07:46:00.677Z,4.7
2023-01-31T07:47:00.325Z,4.7
2023-01-31T07:48:00.890Z,4.7
2023-01-31T07:49:00.480Z,4.7
2023-01-31T07:50:00.090Z,4.8
2023-01-31T07:51:00.631Z,4.8
2023-01-31T07:52:00.257Z,4.8
2023-01-31T07:53:00.808Z,4.8
2023-01-31T07:54:00.396Z,4.7
2023-01-31T07:55:00.102Z,4.8
2023-01-31T07:56:00.543Z,4.7
2023-01-31T07:57:00.154Z,4.8
2023-01-31T07:58:00.711Z,4.8
2023-01-31T07:59:00.318Z,4.8
2023-01-31T08:00:00.953Z,4.8
2023-01-31T08:01:00.585Z,4.8
2023-01-31T08:02:00.147Z,4.8
2023-01-31T08:03:00.692Z,4.8
2023-01-31T08:04:07.695Z,4.9
2023-01-31T08:05:00.947Z,4.8
2023-01-31T08:06:00.533Z,4.8
2023-01-31T08:07:00.118Z,4.8
2023-01-31T08:08:00.673Z,4.9
2023-01-31T08:09:00.283Z,4.9
2023-01-31T08:10:00.849Z,5
2023-01-31T08:11:00.440Z,4.9
2023-01-31T08:12:01.047Z,4.9
2023-01-31T08:13:00.644Z,4.9
2023-01-31T08:14:00.283Z,4.9
2023-01-31T08:15:00.823Z,5
2023-01-31T08:16:00.439Z,5
2023-01-31T08:17:00.994Z,4.9
2023-01-31T08:18:00.599Z,4.9
2023-01-31T08:19:00.216Z,4.9
2023-01-31T08:20:00.806Z,5
2023-01-31T08:21:00.414Z,4.9
2023-01-31T08:22:00.969Z,4.9
2023-01-31T08:23:00.577Z,4.9
2023-01-31T08:24:00.199Z,4.9
2023-01-31T08:25:00.789Z,4.9
2023-01-31T08:26:00.385Z,4.9
2023-01-31T08:27:00.968Z,5
2023-01-31T08:28:00.568Z,5
2023-01-31T08:29:00.195Z,5
2023-01-31T08:30:00.755Z,5
2023-01-31T08:31:08.437Z,5
2023-01-31T08:32:01.098Z,5
2023-01-31T08:33:00.588Z,4.9
2023-01-31T08:34:00.210Z,4.9
2023-01-31T08:35:00.764Z,4.9
2023-01-31T08:36:00.360Z,4.9
2023-01-31T08:37:01.065Z,4.9
2023-01-31T08:38:14.376Z,4.9
2023-01-31T08:39:00.205Z,4.9
2023-01-31T08:40:00.753Z,5
2023-01-31T08:41:00.340Z,5
2023-01-31T08:42:00.945Z,5
2023-01-31T08:43:00.547Z,4.9
2023-01-31T08:44:01.362Z,4.9
2023-01-31T08:45:00.645Z,4.8
2023-01-31T08:46:00.231Z,4.8
2023-01-31T08:47:00.935Z,4.8
2023-01-31T08:48:00.519Z,4.7
2023-01-31T08:49:00.101Z,4.7
2023-01-31T08:50:00.702Z,4.7
2023-01-31T08:51:00.316Z,4.6
2023-01-31T08:52:00.905Z,4.5
2023-01-31T08:53:00.513Z,4.6
2023-01-31T08:54:00.123Z,4.6
2023-01-31T08:55:00.668Z,4.6
2023-01-31T08:56:00.298Z,4.6
2023-01-31T08:57:00.855Z,4.7
2023-01-31T08:58:00.647Z,4.6
2023-01-31T08:59:00.031Z,4.4
2023-01-31T09:00:00.623Z,4.4
2023-01-31T09:01:00.214Z,4.4
2023-01-31T09:02:00.876Z,4.5
2023-01-31T09:03:00.574Z,4.5
2023-01-31T09:04:00.081Z,4.5
2023-01-31T09:05:00.635Z,4.5
2023-01-31T09:06:00.237Z,4.5
2023-01-31T09:07:00.846Z,4.6
2023-01-31T09:08:00.429Z,4.6
2023-01-31T09:09:01.000Z,4.6
2023-01-31T09:10:00.584Z,4.6
2023-01-31T09:11:00.171Z,4.6
2023-01-31T09:12:00.772Z,4.7
2023-01-31T09:13:00.364Z,4.7
2023-01-31T09:14:00.963Z,4.7
2023-01-31T09:15:00.545Z,4.7
2023-01-31T09:16:00.145Z,4.8
2023-01-31T09:17:00.740Z,4.8
2023-01-31T09:18:00.321Z,4.7
2023-01-31T09:19:00.929Z,4.8
2023-01-31T09:20:00.569Z,4.9
2023-01-31T09:21:00.091Z,5
2023-01-31T09:22:00.679Z,5
2023-01-31T09:23:00.262Z,4.8
2023-01-31T09:24:00.903Z,4.7
2023-01-31T09:25:00.510Z,4.8
2023-01-31T09:26:00.124Z,4.8
2023-01-31T09:27:00.689Z,4.9
2023-01-31T09:28:00.282Z,4.9
2023-01-31T09:29:00.884Z,4.9
2023-01-31T09:30:00.481Z,4.9
2023-01-31T09:31:00.120Z,4.8
2023-01-31T09:32:00.692Z,5
2023-01-31T09:33:00.296Z,5
2023-01-31T09:34:00.907Z,4.9
2023-01-31T09:35:00.533Z,4.9
2023-01-31T09:36:00.136Z,4.9
2023-01-31T09:37:00.700Z,5
2023-01-31T09:38:00.298Z,5
2023-01-31T09:39:00.883Z,4.9
2023-01-31T09:40:00.483Z,4.9
2023-01-31T09:41:00.092Z,4.9
2023-01-31T09:42:00.638Z,4.9
2023-01-31T09:43:00.227Z,5
2023-01-31T09:44:00.822Z,5.1
2023-01-31T09:45:00.405Z,5.1
2023-01-31T09:46:01.016Z,5.1
2023-01-31T09:47:00.703Z,5.1
2023-01-31T09:48:00.242Z,5
2023-01-31T09:49:00.809Z,5
2023-01-31T09:50:00.413Z,5.1
2023-01-31T09:51:01.010Z,5.2
2023-01-31T09:52:00.631Z,5.3
2023-01-31T09:53:00.223Z,5.4
2023-01-31T09:54:00.807Z,5.4
2023-01-31T09:55:00.417Z,5.3
2023-01-31T09:56:00.981Z,5.3
2023-01-31T09:57:00.621Z,5.3
2023-01-31T09:58:00.215Z,5.3
2023-01-31T09:59:00.795Z,5.3
2023-01-31T10:00:00.410Z,5.3
2023-01-31T10:01:01.001Z,5.4
2023-01-31T10:02:00.631Z,5.5
2023-01-31T10:03:00.194Z,5.6
2023-01-31T10:04:00.849Z,5.6
2023-01-31T10:05:00.471Z,5.6
2023-01-31T10:06:01.016Z,5.5
2023-01-31T10:07:00.604Z,5.4
2023-01-31T10:08:00.246Z,5.4
2023-01-31T10:09:00.775Z,5.4
2023-01-31T10:10:00.381Z,5.2
2023-01-31T10:11:00.945Z,5.2
2023-01-31T10:12:00.555Z,5.1
2023-01-31T10:13:00.143Z,5.1
2023-01-31T10:14:00.729Z,5.2
2023-01-31T10:15:00.336Z,5.3
2023-01-31T10:16:00.904Z,5.2
2023-01-31T10:17:00.490Z,5.1
2023-01-31T10:18:00.140Z,5.2
2023-01-31T10:19:00.667Z,5.2
2023-01-31T10:20:00.276Z,5.2
2023-01-31T10:21:00.832Z,5.4
2023-01-31T10:22:00.474Z,5.4
2023-01-31T10:23:00.069Z,5.5
2023-01-31T10:24:00.695Z,5.4
2023-01-31T10:25:00.306Z,5.3
2023-01-31T10:26:00.866Z,5.3
2023-01-31T10:27:00.471Z,5.3
2023-01-31T10:28:00.035Z,5.3
2023-01-31T10:29:00.615Z,5.2
2023-01-31T10:30:00.224Z,5.4
2023-01-31T10:31:00.860Z,5.4
2023-01-31T10:32:00.497Z,5.4
2023-01-31T10:33:00.040Z,5.4
2023-01-31T10:34:00.624Z,5.4
2023-01-31T10:35:00.212Z,5.4
2023-01-31T10:36:00.803Z,5.5
2023-01-31T10:37:00.390Z,5.4
2023-01-31T10:38:00.967Z,5.4
2023-01-31T10:39:00.557Z,5.3
2023-01-31T10:40:00.174Z,5.4
2023-01-31T10:41:00.757Z,5.4
2023-01-31T10:42:00.375Z,5.2
2023-01-31T10:43:00.927Z,5.3
2023-01-31T10:44:00.521Z,5.3
2023-01-31T10:45:00.118Z,5.3
2023-01-31T10:46:00.778Z,5.3
2023-01-31T10:47:00.343Z,5.3
2023-01-31T10:48:00.920Z,5.3
2023-01-31T10:49:00.511Z,5.2
2023-01-31T10:50:00.124Z,5.3
2023-01-31T10:51:00.701Z,5.3
2023-01-31T10:52:00.295Z,5.3
2023-01-31T10:53:00.865Z,5.3
2023-01-31T10:54:00.459Z,5.3
2023-01-31T10:55:00.045Z,5.3
2023-01-31T10:56:00.676Z,5.2
2023-01-31T10:57:00.306Z,5.2
2023-01-31T10:58:01.511Z,5.2
2023-01-31T10:59:00.249Z,5.1
2023-01-31T11:00:00.833Z,5.2
2023-01-31T11:01:00.492Z,5.2
2023-01-31T11:02:01.056Z,5.2
2023-01-31T11:03:00.675Z,5.2
2023-01-31T11:04:00.236Z,5.3
2023-01-31T11:05:00.827Z,5.2
2023-01-31T11:06:00.430Z,5.3
2023-01-31T11:07:01.012Z,5.2
2023-01-31T11:08:00.613Z,5.2
2023-01-31T11:09:00.202Z,5.3
2023-01-31T11:10:00.785Z,5.3
2023-01-31T11:11:00.392Z,5.3
2023-01-31T11:12:00.989Z,5.3
2023-01-31T11:13:00.602Z,5.3
2023-01-31T11:14:00.210Z,5.3
2023-01-31T11:15:00.792Z,5.4
2023-01-31T11:16:00.384Z,5.4
2023-01-31T11:17:00.965Z,5.4
2023-01-31T11:18:00.551Z,5.4
2023-01-31T11:19:00.158Z,5.5
2023-01-31T11:20:00.727Z,5.5
2023-01-31T11:21:00.313Z,5.5
2023-01-31T11:22:00.886Z,5.6
2023-01-31T11:23:00.474Z,5.6
2023-01-31T11:24:00.106Z,5.6
2023-01-31T11:25:00.649Z,5.7
2023-01-31T11:26:00.252Z,5.6
2023-01-31T11:27:00.824Z,5.6
2023-01-31T11:28:00.437Z,5.6
2023-01-31T11:29:01.028Z,5.6
2023-01-31T11:30:00.762Z,5.6
2023-01-31T11:31:00.236Z,5.5
2023-01-31T11:32:00.901Z,5.6
2023-01-31T11:33:00.470Z,5.6
2023-01-31T11:34:00.067Z,5.7
2023-01-31T11:35:00.678Z,5.7
2023-01-31T11:36:00.284Z,5.7
2023-01-31T11:37:00.879Z,5.7
2023-01-31T11:38:00.472Z,5.6
2023-01-31T11:39:00.093Z,5.6
2023-01-31T11:40:00.631Z,5.6
2023-01-31T11:41:00.291Z,5.7
2023-01-31T11:42:00.874Z,5.7
2023-01-31T11:43:00.463Z,5.8
2023-01-31T11:44:00.123Z,5.7
2023-01-31T11:45:00.634Z,5.8
2023-01-31T11:46:00.330Z,5.7
2023-01-31T11:47:00.809Z,5.8
2023-01-31T11:48:00.409Z,5.8
2023-01-31T11:49:01.005Z,5.8
2023-01-31T11:50:00.589Z,5.8
2023-01-31T11:51:00.194Z,5.8
2023-01-31T11:52:00.763Z,5.8
2023-01-31T11:53:00.356Z,5.8
2023-01-31T11:54:00.928Z,5.8
2023-01-31T11:55:00.518Z,5.8
2023-01-31T11:56:00.136Z,5.8
2023-01-31T11:57:00.685Z,5.8
2023-01-31T11:58:00.321Z,5.9
2023-01-31T11:59:00.858Z,5.8
2023-01-31T12:00:00.493Z,5.8
2023-01-31T12:01:00.030Z,5.8
2023-01-31T12:02:00.651Z,5.8
2023-01-31T12:03:00.283Z,5.9
2023-01-31T12:04:04.039Z,5.8
2023-01-31T12:05:00.379Z,5.9
2023-01-31T12:06:00.984Z,5.9
2023-01-31T12:07:00.596Z,5.9
2023-01-31T12:08:00.185Z,5.9
2023-01-31T12:09:00.768Z,6.1
2023-01-31T12:10:00.369Z,6
2023-01-31T12:11:00.938Z,6
2023-01-31T12:12:00.556Z,6
2023-01-31T12:13:12.488Z,6
2023-01-31T12:14:00.695Z,6
2023-01-31T12:15:00.299Z,6
2023-01-31T12:16:00.884Z,5.9
2023-01-31T12:17:00.520Z,5.9
2023-01-31T12:18:00.091Z,5.9
2023-01-31T12:19:00.698Z,6
2023-01-31T12:20:00.301Z,5.9
2023-01-31T12:21:00.896Z,5.9
2023-01-31T12:22:00.478Z,5.9
2023-01-31T12:23:00.099Z,6
2023-01-31T12:24:00.667Z,6
2023-01-31T12:25:00.264Z,6
2023-01-31T12:26:00.841Z,6.1
2023-01-31T12:27:00.431Z,6.1
2023-01-31T12:28:01.029Z,6.1
2023-01-31T12:29:00.631Z,6.1
2023-01-31T12:30:00.234Z,6.1
2023-01-31T12:31:00.946Z,6
2023-01-31T12:32:00.480Z,6.1
2023-01-31T12:33:00.079Z,6.1
2023-01-31T12:34:00.640Z,6.1
2023-01-31T12:35:03.795Z,6.2
2023-01-31T12:36:00.789Z,6.1
2023-01-31T12:37:00.382Z,6.1
2023-01-31T12:38:00.945Z,6.1
2023-01-31T12:39:00.531Z,6.1
2023-01-31T12:40:00.159Z,6.2
2023-01-31T12:41:00.695Z,6.2
2023-01-31T12:42:00.344Z,6.2
2023-01-31T12:43:00.926Z,6.3
2023-01-31T12:44:00.529Z,6.2
2023-01-31T12:45:00.103Z,6.3
2023-01-31T12:46:02.778Z,6.2
2023-01-31T12:47:10.365Z,6.2
2023-01-31T12:48:00.813Z,6.2
2023-01-31T12:49:00.423Z,6.3
2023-01-31T12:50:00.979Z,6.2
2023-01-31T12:51:00.575Z,6.2
2023-01-31T12:52:00.169Z,6.3
2023-01-31T12:53:00.745Z,6.3
2023-01-31T12:54:00.383Z,6.3
2023-01-31T12:55:00.937Z,6.3
2023-01-31T12:56:00.522Z,6.3
2023-01-31T12:57:00.118Z,6.3
2023-01-31T12:58:02.742Z,6.3
2023-01-31T12:59:15.261Z,6.3
2023-01-31T13:00:00.826Z,6.2
2023-01-31T13:01:00.604Z,6.3
2023-01-31T13:02:00.169Z,6.3
2023-01-31T13:03:00.784Z,6.3
2023-01-31T13:04:00.416Z,6.3
2023-01-31T13:05:00.965Z,6.3
2023-01-31T13:06:00.584Z,6.2
2023-01-31T13:07:00.180Z,6.3
2023-01-31T13:08:00.761Z,6.3
2023-01-31T13:09:07.594Z,6.3
2023-01-31T13:10:00.888Z,6.3
2023-01-31T13:11:00.497Z,6.3
2023-01-31T13:12:00.102Z,6.3
2023-01-31T13:13:00.666Z,6.4
2023-01-31T13:14:00.262Z,6.3
2023-01-31T13:15:00.849Z,6.3
2023-01-31T13:16:00.485Z,6.3
2023-01-31T13:17:01.044Z,6.4
2023-01-31T13:18:00.650Z,6.4
2023-01-31T13:19:00.247Z,6.4
2023-01-31T13:20:00.863Z,6.4
2023-01-31T13:21:00.452Z,6.4
2023-01-31T13:22:00.039Z,6.3
2023-01-31T13:23:00.660Z,6.1
2023-01-31T13:24:00.265Z,6.1
2023-01-31T13:25:00.874Z,6
2023-01-31T13:26:00.457Z,5.9
2023-01-31T13:27:00.045Z,6
2023-01-31T13:28:00.653Z,6
2023-01-31T13:29:00.246Z,5.9
2023-01-31T13:30:00.828Z,5.8
2023-01-31T13:31:00.591Z,5.8
2023-01-31T13:32:01.101Z,5.8
2023-01-31T13:33:00.760Z,5.8
2023-01-31T13:34:00.255Z,5.7
2023-01-31T13:35:00.826Z,5.7
2023-01-31T13:36:00.437Z,5.6
2023-01-31T13:37:00.996Z,5.7
2023-01-31T13:38:00.585Z,5.7
2023-01-31T13:39:00.192Z,5.6
2023-01-31T13:40:00.747Z,5.7
2023-01-31T13:41:00.336Z,5.6
2023-01-31T13:42:00.920Z,5.7
2023-01-31T13:43:00.517Z,5.6
2023-01-31T13:44:00.123Z,5.6
2023-01-31T13:45:00.675Z,5.6
2023-01-31T13:46:00.267Z,5.6
2023-01-31T13:47:00.853Z,5.6
2023-01-31T13:48:00.444Z,5.6
2023-01-31T13:49:00.063Z,5.6
2023-01-31T13:50:00.626Z,5.6
2023-01-31T13:51:00.229Z,5.6
2023-01-31T13:52:00.848Z,5.5